METAR Data

Data at: 1226 UTC 24 May 2022

METAR for:KMLT (Millinocket Muni, ME, US)
Text:KMLT 241153Z AUTO 04007KT 10SM CLR 10/01 A3040 RMK AO2 SLP302 T01000006 10106 20022 51010 TSNO
Temperature: 10.0°C ( 50°F)
Dewpoint: 0.6°C ( 33°F) [RH = 52%]
Pressure (altimeter):30.40 inches Hg (1029.5 mb) [Sea level pressure: 1030.2 mb]
Winds:from the NE (40 degrees) at 8 MPH (7 knots; 3.6 m/s)
Visibility:10 or more sm (16+ km)
Ceiling:at least 12,000 feet AGL
Clouds:sky clear below 12,000 feet AGL
QC Flag:automated observation with no human augmentation